Time;durP1;ratioP1;P1;durP2;ratioP2;P2;SDS_P1;SDS_P2;PMS_P1;PMS_P2;Temp;Humidity;BMP_temperature;BMP_pressure;BME280_temperature;BME280_humidity;BME280_pressure;Samples;Min_cycle;Max_cycle;Signal;HPM_P1;HPM_P2
2024/02/07 00:03:12;;;;;;;7.90;2.90;;;;;;;10.00;100.00;98577.98;219789;1265;140265;-88
2024/02/07 00:08:13;;;;;;;8.10;2.30;;;;;;;10.03;100.00;98574.65;220217;1268;139877;-90
2024/02/07 00:13:13;;;;;;;8.90;3.20;;;;;;;10.03;100.00;98574.56;219889;1263;140279;-90
2024/02/07 00:18:14;;;;;;;11.60;2.80;;;;;;;10.05;100.00;98570.88;220480;1266;138888;-88
2024/02/07 00:23:14;;;;;;;8.90;2.90;;;;;;;10.06;100.00;98557.43;219737;1265;141076;-90
2024/02/07 00:28:15;;;;;;;10.00;2.90;;;;;;;10.07;100.00;98555.30;220255;1265;139068;-89
2024/02/07 00:33:15;;;;;;;11.20;2.70;;;;;;;10.08;100.00;98551.10;219731;1264;140211;-89
2024/02/07 00:38:17;;;;;;;7.80;2.60;;;;;;;10.09;100.00;98547.49;220509;1267;139160;-91
2024/02/07 00:43:17;;;;;;;5.90;2.70;;;;;;;10.09;100.00;98544.66;219969;1263;139892;-92
2024/02/07 00:48:18;;;;;;;10.40;2.60;;;;;;;10.08;100.00;98538.08;221361;1267;138790;-88
2024/02/07 00:53:18;;;;;;;10.30;2.50;;;;;;;10.08;100.00;98528.34;219799;1266;140253;-90
2024/02/07 00:58:19;;;;;;;7.40;2.60;;;;;;;10.08;100.00;98527.95;220492;1268;97950;-91
2024/02/07 01:03:20;;;;;;;8.30;2.70;;;;;;;10.09;100.00;98521.27;219702;1265;139825;-90
2024/02/07 01:08:21;;;;;;;10.30;2.40;;;;;;;10.07;100.00;98525.62;220294;1266;139000;-91
2024/02/07 01:13:21;;;;;;;12.20;3.30;;;;;;;10.05;100.00;98519.98;220582;1264;141174;-93
2024/02/07 01:18:22;;;;;;;8.70;2.70;;;;;;;9.98;100.00;98524.64;221213;1264;139151;-90
2024/02/07 01:23:23;;;;;;;13.50;2.90;;;;;;;9.91;100.00;98518.48;220586;1267;140196;-89
2024/02/07 01:28:23;;;;;;;9.30;3.30;;;;;;;9.81;100.00;98510.25;221522;1267;96621;-86
2024/02/07 01:33:24;;;;;;;9.60;3.20;;;;;;;9.73;100.00;98509.13;220908;1264;139504;-91
2024/02/07 01:38:24;;;;;;;12.20;3.50;;;;;;;9.67;100.00;98503.80;221850;1265;139342;-94
2024/02/07 01:43:29;;;;;;;10.60;3.00;;;;;;;9.62;100.00;98490.55;221898;1265;140159;-95
2024/02/07 01:48:31;;;;;;;10.80;4.10;;;;;;;9.55;100.00;98485.33;223033;1263;139530;-89
2024/02/07 01:53:34;;;;;;;13.60;3.80;;;;;;;9.48;100.00;98484.10;221063;1266;139887;-92
2024/02/07 01:58:35;;;;;;;15.90;3.70;;;;;;;9.40;100.00;98479.76;221557;1264;96690;-92
2024/02/07 02:03:36;;;;;;;9.10;3.10;;;;;;;9.31;100.00;98476.77;221043;1265;139482;-89
2024/02/07 02:08:36;;;;;;;10.00;4.30;;;;;;;9.22;100.00;98466.80;221401;1264;138623;-89
2024/02/07 02:13:38;;;;;;;13.80;3.20;;;;;;;9.12;100.00;98455.18;221245;1266;140160;-91
2024/02/07 02:18:39;;;;;;;9.90;3.10;;;;;;;9.03;100.00;98441.05;221842;1264;139034;-92
2024/02/07 02:24:33;;;;;;;6.80;2.90;;;;;;;8.98;100.00;98430.08;221212;1264;139853;-91
2024/02/07 02:29:40;;;;;;;8.10;3.40;;;;;;;8.93;100.00;98424.49;221503;1267;137368;-93
2024/02/07 02:34:42;;;;;;;9.00;2.80;;;;;;;8.90;100.00;98423.20;221170;1266;139456;-92
2024/02/07 02:39:43;;;;;;;9.40;2.60;;;;;;;8.89;100.00;98424.94;221648;1266;138399;-92
2024/02/07 02:44:43;;;;;;;7.70;2.50;;;;;;;8.87;100.00;98449.89;220831;1263;139422;-92
2024/02/07 02:49:43;;;;;;;9.80;1.80;;;;;;;8.77;100.00;98513.66;221668;1264;138988;-89
2024/02/07 02:54:46;;;;;;;3.20;1.20;;;;;;;8.51;100.00;98537.70;220717;1264;139284;-91
2024/02/07 02:59:48;;;;;;;2.70;1.20;;;;;;;8.25;100.00;98543.44;220949;1266;138607;-89
2024/02/07 03:04:50;;;;;;;2.00;0.80;;;;;;;7.95;100.00;98555.75;221061;1263;139612;-90
2024/02/07 03:09:51;;;;;;;2.30;0.80;;;;;;;7.79;100.00;98566.29;221135;1263;138565;-93
2024/02/07 03:14:52;;;;;;;3.50;0.90;;;;;;;7.65;100.00;98571.40;220586;1264;139117;-90
2024/02/07 03:19:53;;;;;;;1.40;0.70;;;;;;;7.57;100.00;98573.11;221018;1264;138994;-90
2024/02/07 03:24:55;;;;;;;1.60;0.80;;;;;;;7.43;100.00;98571.16;220912;1264;139188;-89
2024/02/07 03:29:56;;;;;;;1.60;0.80;;;;;;;7.28;100.00;98582.52;222449;1266;139365;-89
2024/02/07 03:34:57;;;;;;;2.10;0.40;;;;;;;7.15;100.00;98587.02;222025;1265;139280;-89
2024/02/07 03:39:57;;;;;;;1.40;0.40;;;;;;;7.02;100.00;98594.20;220722;1265;139458;-89
2024/02/07 03:45:03;;;;;;;1.50;0.50;;;;;;;6.79;100.00;98599.06;221142;1264;138335;-89
2024/02/07 03:50:05;;;;;;;2.30;0.50;;;;;;;6.67;100.00;98606.42;220424;1266;139635;-89
2024/02/07 03:55:06;;;;;;;0.80;0.40;;;;;;;6.47;100.00;98615.68;221111;1264;138488;-89
2024/02/07 04:00:08;;;;;;;2.00;0.60;;;;;;;6.34;100.00;98624.61;220521;1265;139501;-90
2024/02/07 04:05:09;;;;;;;0.80;0.20;;;;;;;6.11;100.00;98634.15;221420;1266;97685;-89
2024/02/07 04:10:11;;;;;;;1.90;0.50;;;;;;;5.83;100.00;98643.48;220577;1266;139389;-89
2024/02/07 05:19:03;;;;;;;3.10;0.70;;;;;;;4.39;100.00;98658.68;222639;1267;138498;-86
2024/02/07 05:24:10;;;;;;;5.00;1.10;;;;;;;4.34;100.00;98670.39;220833;1268;139428;-85
2024/02/07 05:29:15;;;;;;;19.70;7.90;;;;;;;4.25;100.00;98671.10;221076;1265;96617;-86
2024/02/07 05:34:16;;;;;;;10.10;1.70;;;;;;;4.15;100.00;98668.45;220633;1266;139189;-86
2024/02/07 05:39:17;;;;;;;5.60;2.10;;;;;;;4.09;100.00;98663.43;221057;1268;138646;-88
2024/02/07 05:44:17;;;;;;;2.20;0.70;;;;;;;4.04;100.00;98665.71;220972;1264;139631;-87
2024/02/07 05:49:18;;;;;;;2.30;0.70;;;;;;;3.99;100.00;98668.55;221780;1264;138478;-88
2024/02/07 05:54:18;;;;;;;3.30;0.90;;;;;;;3.92;100.00;98676.95;221219;1265;141307;-86
2024/02/07 05:59:19;;;;;;;1.10;0.50;;;;;;;3.87;100.00;98676.13;221988;1268;97610;-88
2024/02/07 06:04:20;;;;;;;3.70;0.70;;;;;;;3.83;100.00;98683.64;220959;1266;139659;-87
2024/02/07 06:09:20;;;;;;;2.70;0.60;;;;;;;3.80;100.00;98682.69;221323;1267;138798;-86
2024/02/07 06:14:20;;;;;;;3.60;0.70;;;;;;;3.74;100.00;98681.85;220882;1269;139362;-88
2024/02/07 06:19:21;;;;;;;2.50;0.70;;;;;;;3.71;100.00;98679.48;221187;1268;138468;-90
2024/02/07 06:24:22;;;;;;;8.10;1.80;;;;;;;3.68;100.00;98681.64;220735;1268;139575;-87
2024/02/07 06:29:22;;;;;;;1.80;0.50;;;;;;;3.66;100.00;98676.16;221222;1264;139488;-89
2024/02/07 06:34:23;;;;;;;8.60;1.50;;;;;;;3.64;100.00;98671.78;220771;1266;139827;-88
2024/02/07 06:39:26;;;;;;;3.30;1.30;;;;;;;3.62;100.00;98669.12;221097;1266;138463;-89
2024/02/07 06:44:27;;;;;;;4.40;1.10;;;;;;;3.58;100.00;98676.39;220400;1269;140254;-91
2024/02/07 06:49:27;;;;;;;4.20;1.20;;;;;;;3.53;100.00;98679.81;220954;1269;138482;-88
2024/02/07 06:54:28;;;;;;;6.20;1.10;;;;;;;3.49;100.00;98682.66;221430;1264;139693;-93
2024/02/07 06:59:29;;;;;;;7.90;0.90;;;;;;;3.46;100.00;98670.43;221773;1268;138570;-89
2024/02/07 07:04:30;;;;;;;3.10;0.90;;;;;;;3.41;100.00;98670.62;220948;1264;139550;-90
2024/02/07 07:09:30;;;;;;;5.00;1.00;;;;;;;3.39;100.00;98674.88;221639;1266;139104;-90
2024/02/07 07:14:31;;;;;;;4.50;1.00;;;;;;;3.38;100.00;98666.47;221215;1264;140223;-93
2024/02/07 07:19:31;;;;;;;5.00;1.30;;;;;;;3.34;100.00;98658.80;221985;1264;138538;-90
2024/02/07 07:24:32;;;;;;;3.50;0.90;;;;;;;3.25;100.00;98669.34;221488;1267;139847;-94
2024/02/07 07:29:32;;;;;;;3.10;0.90;;;;;;;3.20;100.00;98679.45;221798;1264;138461;-92
2024/02/07 07:34:33;;;;;;;2.70;0.90;;;;;;;3.18;100.00;98674.84;221612;1267;139328;-91
2024/02/07 07:39:34;;;;;;;3.40;1.00;;;;;;;3.19;100.00;98676.58;221836;1264;138709;-89
2024/02/07 07:44:35;;;;;;;4.30;1.00;;;;;;;3.21;100.00;98676.69;221381;1267;139637;-93
2024/02/07 07:49:35;;;;;;;5.50;1.30;;;;;;;3.21;100.00;98689.09;220921;1264;138497;-90
2024/02/07 07:54:37;;;;;;;3.80;1.00;;;;;;;3.23;100.00;98703.48;220574;1264;140140;-90
2024/02/07 07:59:37;;;;;;;4.90;1.40;;;;;;;3.24;100.00;98710.03;221457;1264;138539;-88
2024/02/07 08:04:41;;;;;;;7.00;1.30;;;;;;;3.27;100.00;98712.54;220522;1264;139727;-90
2024/02/07 08:09:42;;;;;;;8.10;1.80;;;;;;;3.31;100.00;98711.97;221262;1264;139667;-91
2024/02/07 08:14:43;;;;;;;5.70;1.90;;;;;;;3.36;100.00;98712.89;220714;1264;139446;-89
2024/02/07 08:19:46;;;;;;;7.50;1.40;;;;;;;3.40;100.00;98715.98;220986;1264;139092;-89
2024/02/07 08:24:47;;;;;;;9.40;1.60;;;;;;;3.42;100.00;98717.17;220687;1267;140035;-90
2024/02/07 08:29:47;;;;;;;3.10;1.30;;;;;;;3.47;100.00;98717.77;221098;1264;138678;-91
2024/02/07 08:34:48;;;;;;;6.10;1.60;;;;;;;3.53;100.00;98719.84;220590;1267;139441;-89
2024/02/07 08:39:49;;;;;;;5.30;1.30;;;;;;;3.57;100.00;98721.22;220955;1264;138802;-89
2024/02/07 08:44:50;;;;;;;7.40;2.00;;;;;;;3.62;100.00;98728.42;219962;1264;139858;-92
2024/02/07 08:49:50;;;;;;;6.40;1.60;;;;;;;3.66;100.00;98727.45;220560;1264;138658;-88
2024/02/07 08:54:50;;;;;;;9.60;1.70;;;;;;;3.70;100.00;98731.39;220472;1267;139398;-90
2024/02/07 08:59:51;;;;;;;5.60;1.50;;;;;;;3.76;100.00;98735.80;221486;1264;138804;-89
2024/02/07 09:04:52;;;;;;;11.20;2.60;;;;;;;3.81;100.00;98737.02;220644;1264;140444;-89
2024/02/07 09:09:52;;;;;;;11.80;2.00;;;;;;;3.86;100.00;98745.39;220801;1264;139312;-87
2024/02/07 09:14:55;;;;;;;7.90;2.30;;;;;;;3.93;100.00;98747.64;220381;1264;139627;-92
2024/02/07 09:19:55;;;;;;;9.90;2.40;;;;;;;4.01;100.00;98749.21;220480;1263;139673;-89
2024/02/07 09:24:57;;;;;;;9.20;2.70;;;;;;;4.04;100.00;98744.87;220604;1264;139445;-95
2024/02/07 09:29:57;;;;;;;9.10;1.90;;;;;;;4.06;100.00;98753.05;220238;1264;140407;-89
2024/02/07 09:34:58;;;;;;;12.60;2.00;;;;;;;4.10;100.00;98754.59;220910;1264;98013;-89
2024/02/07 09:39:58;;;;;;;7.30;1.90;;;;;;;4.18;100.00;98759.56;220183;1264;140329;-89
2024/02/07 09:45:02;;;;;;;12.20;2.00;;;;;;;4.24;100.00;98762.10;220761;1267;138587;-91
2024/02/07 09:50:04;;;;;;;7.90;2.40;;;;;;;4.32;100.00;98757.65;220228;1264;139946;-92
2024/02/07 09:55:07;;;;;;;12.20;2.80;;;;;;;4.38;100.00;98764.17;220806;1264;138443;-89
2024/02/07 10:00:08;;;;;;;5.70;2.00;;;;;;;4.42;100.00;98761.40;221115;1264;139720;-94
2024/02/07 10:05:13;;;;;;;7.80;2.10;;;;;;;4.46;100.00;98760.36;221052;1264;97930;-89
2024/02/07 10:10:14;;;;;;;7.30;2.40;;;;;;;4.52;100.00;98755.04;220303;1264;139656;-92
2024/02/07 10:15:14;;;;;;;12.90;2.60;;;;;;;4.60;100.00;98755.65;221056;1267;138414;-93
2024/02/07 10:20:16;;;;;;;9.10;2.10;;;;;;;4.64;100.00;98769.06;220460;1264;140735;-89
2024/02/07 10:25:17;;;;;;;9.10;2.50;;;;;;;4.69;100.00;98768.40;220793;1267;412811;-91
2024/02/07 10:30:17;;;;;;;12.50;2.80;;;;;;;4.70;100.00;98768.10;220878;1264;140289;-92
2024/02/07 10:35:18;;;;;;;14.40;2.50;;;;;;;4.71;100.00;98762.29;221116;1264;98132;-93
2024/02/07 10:40:20;;;;;;;9.70;2.30;;;;;;;4.71;100.00;98763.05;220893;1264;140149;-94
2024/02/07 10:45:20;;;;;;;14.60;3.30;;;;;;;4.73;100.00;98764.77;221830;1264;137900;-93
2024/02/07 10:50:21;;;;;;;12.90;2.40;;;;;;;4.75;100.00;98760.27;221384;1263;140012;-94
2024/02/07 10:55:23;;;;;;;11.80;2.50;;;;;;;4.78;100.00;98766.36;221759;1264;138694;-95
2024/02/07 11:00:24;;;;;;;11.40;2.70;;;;;;;4.81;100.00;98760.23;221216;1263;139659;-93
2024/02/07 11:05:25;;;;;;;14.10;3.60;;;;;;;4.82;100.00;98765.94;221710;1264;139114;-90
2024/02/07 11:10:27;;;;;;;9.20;2.50;;;;;;;4.85;100.00;98773.42;220788;1264;139822;-92
2024/02/07 11:15:28;;;;;;;12.70;2.50;;;;;;;4.87;100.00;98773.12;221146;1264;138608;-93
2024/02/07 11:20:29;;;;;;;11.00;2.70;;;;;;;4.93;100.00;98771.23;221097;1264;140762;-93
2024/02/07 11:25:32;;;;;;;15.10;5.30;;;;;;;4.95;100.00;98773.10;221216;1264;139054;-94
2024/02/07 11:30:32;;;;;;;15.20;3.50;;;;;;;4.98;100.00;98767.98;221320;1264;139855;-93
2024/02/07 11:35:33;;;;;;;16.50;3.40;;;;;;;5.01;100.00;98772.13;221608;1264;138685;-91
2024/02/07 11:40:38;;;;;;;13.20;3.10;;;;;;;5.04;100.00;98766.23;220891;1264;139687;-92
2024/02/07 11:45:39;;;;;;;10.00;2.50;;;;;;;5.10;100.00;98768.38;221275;1264;138445;-93
2024/02/07 11:50:42;;;;;;;18.50;3.90;;;;;;;5.13;100.00;98767.92;220796;1267;140947;-93
2024/02/07 11:55:46;;;;;;;12.70;3.20;;;;;;;5.15;100.00;98782.34;221150;1265;139249;-93
2024/02/07 12:00:48;;;;;;;14.30;3.30;;;;;;;5.19;100.00;98794.45;221210;1264;140333;-93
2024/02/07 12:05:49;;;;;;;13.00;3.80;;;;;;;5.24;100.00;98801.95;222174;1263;139461;-92
2024/02/07 12:10:51;;;;;;;17.20;2.90;;;;;;;5.26;100.00;98794.56;221009;1264;140838;-92
2024/02/07 12:15:52;;;;;;;14.10;4.30;;;;;;;5.30;100.00;98791.70;221692;1267;139249;-94
2024/02/07 12:20:57;;;;;;;7.20;2.40;;;;;;;5.32;100.00;98807.69;221143;1267;139687;-92
2024/02/07 12:26:03;;;;;;;8.10;2.10;;;;;;;5.29;100.00;98830.66;222244;1267;138557;-93
2024/02/07 12:31:04;;;;;;;9.80;2.00;;;;;;;5.04;100.00;98849.48;220950;1264;139897;-94
2024/02/07 12:36:07;;;;;;;11.60;2.00;;;;;;;4.72;100.00;98856.63;221263;1264;138589;-90
2024/02/07 12:41:07;;;;;;;9.70;1.90;;;;;;;4.53;100.00;98862.38;220619;1264;140167;-92
2024/02/07 12:46:09;;;;;;;9.10;2.00;;;;;;;4.49;100.00;98860.93;221259;1264;138434;-91
2024/02/07 12:51:11;;;;;;;7.70;1.70;;;;;;;4.55;100.00;98864.09;220797;1264;139534;-92
2024/02/07 12:56:21;;;;;;;13.70;2.10;;;;;;;4.64;100.00;98867.29;221127;1263;138799;-93
2024/02/07 13:01:23;;;;;;;10.10;2.00;;;;;;;4.69;100.00;98876.45;220615;1266;140298;-93
2024/02/07 13:06:23;;;;;;;13.30;2.60;;;;;;;4.72;100.00;98881.86;221171;1264;138923;-93
2024/02/07 13:11:25;;;;;;;14.30;2.50;;;;;;;4.70;100.00;98888.45;220785;1264;139669;-91
2024/02/07 13:16:28;;;;;;;13.30;3.20;;;;;;;4.70;100.00;98895.85;221084;1264;99292;-90
2024/02/07 13:21:29;;;;;;;15.00;3.00;;;;;;;4.75;100.00;98903.77;220220;1264;140082;-93
2024/02/07 13:26:29;;;;;;;11.60;2.70;;;;;;;4.79;100.00;98910.03;221127;1263;139391;-92
2024/02/07 13:31:30;;;;;;;11.00;2.30;;;;;;;4.82;100.00;98914.72;220442;1264;140113;-91
2024/02/07 13:36:31;;;;;;;13.20;3.00;;;;;;;4.83;100.00;98920.20;221313;1267;138648;-88
2024/02/07 13:41:32;;;;;;;15.20;2.80;;;;;;;4.84;100.00;98922.46;220854;1264;139720;-92
2024/02/07 13:46:32;;;;;;;10.80;2.30;;;;;;;4.83;100.00;98924.70;221446;1266;97982;-91
2024/02/07 13:51:33;;;;;;;11.30;2.30;;;;;;;4.82;100.00;98925.08;220943;1264;139909;-93
2024/02/07 13:56:34;;;;;;;13.70;2.00;;;;;;;4.79;100.00;98929.72;221750;1264;138635;-93
2024/02/07 14:01:34;;;;;;;15.10;5.80;;;;;;;4.77;100.00;98935.46;221279;1265;139671;-94
2024/02/07 14:06:35;;;;;;;22.40;6.60;;;;;;;4.77;100.00;98943.80;221810;1265;137837;-94
2024/02/07 14:11:41;;;;;;;13.20;4.30;;;;;;;4.75;100.00;98949.55;221135;1264;139707;-93
2024/02/07 14:16:41;;;;;;;12.90;2.70;;;;;;;4.71;100.00;98947.31;222152;1265;96365;-92
2024/02/07 14:21:41;;;;;;;11.00;3.10;;;;;;;4.66;100.00;98959.33;221742;1264;139829;-91
2024/02/07 14:26:42;;;;;;;11.00;2.70;;;;;;;4.65;100.00;98966.09;221776;1267;139095;-91
2024/02/07 14:31:42;;;;;;;11.40;2.90;;;;;;;4.62;100.00;98961.54;220544;1264;139402;-92
2024/02/07 14:36:43;;;;;;;11.60;2.40;;;;;;;4.58;100.00;98963.30;220864;1264;139822;-91
2024/02/07 14:41:43;;;;;;;14.30;3.10;;;;;;;4.54;100.00;98975.94;220418;1264;139947;-92
2024/02/07 14:46:44;;;;;;;13.00;2.60;;;;;;;4.52;100.00;98988.52;220862;1263;97933;-92
2024/02/07 14:51:44;;;;;;;6.60;2.40;;;;;;;4.50;100.00;99001.50;220297;1264;140011;-87
2024/02/07 14:56:44;;;;;;;10.80;2.60;;;;;;;4.48;100.00;99005.20;220751;1265;138580;-91
2024/02/07 15:01:46;;;;;;;11.30;2.30;;;;;;;4.43;100.00;99015.95;220261;1264;140777;-92
2024/02/07 15:06:47;;;;;;;11.40;2.00;;;;;;;4.41;100.00;99032.05;220825;1265;138831;-92
2024/02/07 15:11:50;;;;;;;14.60;3.60;;;;;;;4.35;100.00;99039.52;220304;1264;139874;-91
2024/02/07 15:16:51;;;;;;;18.20;4.90;;;;;;;4.28;100.00;99043.92;221212;1263;96653;-92
2024/02/07 15:21:52;;;;;;;16.50;3.00;;;;;;;4.21;100.00;99039.39;220420;1264;139700;-92
2024/02/07 15:26:52;;;;;;;7.50;2.30;;;;;;;4.14;100.00;99044.89;221024;1264;139335;-92
2024/02/07 15:31:53;;;;;;;9.50;2.50;;;;;;;4.07;100.00;99056.61;220421;1265;139791;-93
2024/02/07 15:36:54;;;;;;;14.30;2.80;;;;;;;4.01;100.00;99063.20;220879;1265;138620;-91
2024/02/07 15:41:54;;;;;;;13.20;3.50;;;;;;;3.95;100.00;99061.10;220042;1264;140273;-91
2024/02/07 15:46:54;;;;;;;18.40;4.00;;;;;;;3.89;100.00;99071.81;220917;1267;99275;-89
2024/02/07 15:51:55;;;;;;;12.00;3.60;;;;;;;3.82;100.00;99079.33;220220;1264;140333;-92
2024/02/07 15:57:00;;;;;;;15.60;3.30;;;;;;;3.76;100.00;99083.89;220577;1267;138742;-91
2024/02/07 16:02:00;;;;;;;17.20;3.80;;;;;;;3.70;100.00;99089.08;220026;1267;139731;-93
2024/02/07 16:07:01;;;;;;;29.60;8.50;;;;;;;3.63;100.00;99085.07;221309;1264;139323;-93
2024/02/07 16:12:02;;;;;;;17.50;4.80;;;;;;;3.58;100.00;99093.76;220909;1265;140171;-92
2024/02/07 16:17:03;;;;;;;9.50;2.70;;;;;;;3.52;100.00;99103.54;221071;1267;99289;-92
2024/02/07 16:22:03;;;;;;;13.20;2.50;;;;;;;3.46;100.00;99106.45;220788;1264;139471;-93
2024/02/07 16:27:04;;;;;;;10.80;2.60;;;;;;;3.42;100.00;99119.20;221476;1264;139565;-91
2024/02/07 16:32:05;;;;;;;11.00;2.90;;;;;;;3.37;100.00;99119.66;220755;1265;140235;-92
2024/02/07 16:37:05;;;;;;;15.10;3.40;;;;;;;3.33;100.00;99120.52;221132;1263;138831;-92
2024/02/07 16:42:06;;;;;;;10.90;3.30;;;;;;;3.28;100.00;99122.98;220541;1264;140908;-91
2024/02/07 16:47:06;;;;;;;11.50;3.30;;;;;;;3.24;100.00;99126.77;221051;1264;96653;-89
2024/02/07 16:52:07;;;;;;;17.00;3.60;;;;;;;3.19;100.00;99135.47;220538;1267;140753;-92
2024/02/07 16:57:07;;;;;;;13.70;3.60;;;;;;;3.14;100.00;99137.55;221360;1264;138763;-92
2024/02/07 17:02:09;;;;;;;11.20;3.30;;;;;;;3.09;100.00;99143.50;220819;1264;139647;-91
2024/02/07 17:07:11;;;;;;;19.90;5.90;;;;;;;3.04;100.00;99139.73;221515;1264;139009;-91
2024/02/07 17:12:12;;;;;;;24.50;7.70;;;;;;;3.00;100.00;99142.46;220812;1264;139933;-92
2024/02/07 17:17:12;;;;;;;25.90;5.80;;;;;;;2.92;100.00;99151.07;221755;1264;97955;-89
2024/02/07 17:22:14;;;;;;;24.00;7.50;;;;;;;2.85;100.00;99150.77;221124;1264;140045;-88
2024/02/07 17:27:15;;;;;;;19.40;5.80;;;;;;;2.78;100.00;99161.02;222366;1264;139044;-88
2024/02/07 17:32:17;;;;;;;15.40;4.60;;;;;;;2.72;100.00;99169.42;221601;1264;139853;-88
2024/02/07 17:37:18;;;;;;;18.10;4.90;;;;;;;2.65;100.00;99173.70;221600;1266;139373;-89
2024/02/07 17:42:19;;;;;;;16.10;4.40;;;;;;;2.60;100.00;99181.11;220472;1267;140226;-89
2024/02/07 17:47:19;;;;;;;16.60;4.50;;;;;;;2.56;100.00;99187.23;221199;1264;97568;-89
2024/02/07 17:52:20;;;;;;;18.90;5.80;;;;;;;2.51;100.00;99204.89;220350;1263;139831;-89
2024/02/07 17:57:22;;;;;;;20.30;7.00;;;;;;;2.45;100.00;99208.16;220857;1265;138629;-89
2024/02/07 18:02:22;;;;;;;19.70;5.60;;;;;;;2.42;100.00;99213.81;220246;1264;140766;-88
2024/02/07 18:07:23;;;;;;;24.80;7.40;;;;;;;2.36;100.00;99221.28;220936;1266;138877;-86
2024/02/07 18:12:24;;;;;;;21.00;6.60;;;;;;;2.29;100.00;99224.07;221653;1266;140052;-87
2024/02/07 18:17:27;;;;;;;17.00;5.80;;;;;;;2.26;100.00;99235.92;220830;1264;138650;-85
2024/02/07 18:22:27;;;;;;;14.00;3.80;;;;;;;2.21;100.00;99242.09;220418;1266;139936;-87
2024/02/07 18:27:28;;;;;;;12.30;3.50;;;;;;;2.17;100.00;99248.27;220810;1264;138601;-87
2024/02/07 18:32:28;;;;;;;10.70;2.10;;;;;;;2.12;100.00;99247.91;220354;1263;140024;-87
2024/02/07 18:37:29;;;;;;;8.50;2.30;;;;;;;2.09;100.00;99250.15;220847;1266;138713;-86
2024/02/07 18:42:29;;;;;;;9.60;2.00;;;;;;;2.05;100.00;99257.35;220509;1263;139566;-86
2024/02/07 18:47:30;;;;;;;9.10;2.30;;;;;;;2.00;100.00;99262.09;221070;1263;138673;-86
2024/02/07 18:52:30;;;;;;;11.40;2.20;;;;;;;1.96;100.00;99269.66;220631;1267;139704;-87
2024/02/07 18:57:31;;;;;;;12.70;4.20;;;;;;;1.91;100.00;99273.63;220951;1266;138456;-87
2024/02/07 19:02:34;;;;;;;11.00;3.30;;;;;;;1.86;100.00;99277.52;220163;1264;140851;-86
2024/02/07 19:13:36;;;;;;;7.80;2.70;;;;;;;1.77;100.00;99284.57;214558;1295;636868;-85
2024/02/07 19:18:36;;;;;;;12.60;2.70;;;;;;;1.68;100.00;99289.35;214787;1288;137446;-85
2024/02/07 19:23:37;;;;;;;10.10;3.30;;;;;;;1.62;100.00;99288.86;214021;1290;183588;-86
2024/02/07 19:28:37;;;;;;;8.10;3.70;;;;;;;1.57;100.00;99293.45;214978;1290;94299;-86
2024/02/07 19:33:40;;;;;;;20.30;6.30;;;;;;;1.50;100.00;99298.52;214323;1290;138944;-86
2024/02/07 19:38:40;;;;;;;12.90;3.50;;;;;;;1.38;100.00;99298.95;214877;1289;137893;-87
2024/02/07 19:43:44;;;;;;;17.50;4.10;;;;;;;1.31;100.00;99307.10;214698;1288;138490;-86
2024/02/07 19:48:44;;;;;;;14.40;3.50;;;;;;;1.22;100.00;99307.45;215240;1291;137761;-86
2024/02/07 19:53:45;;;;;;;12.60;4.00;;;;;;;1.15;100.00;99310.73;214729;1289;139972;-86
2024/02/07 19:58:47;;;;;;;13.60;3.80;;;;;;;1.09;100.00;99308.53;215316;1286;94874;-87
2024/02/07 20:03:47;;;;;;;13.70;4.40;;;;;;;1.01;100.00;99312.31;214374;1291;139326;-86
2024/02/07 20:08:48;;;;;;;11.40;4.60;;;;;;;0.93;100.00;99321.13;215134;1288;138043;-86
2024/02/07 20:13:48;;;;;;;17.20;4.30;;;;;;;0.86;100.00;99326.93;216574;1288;137682;-86
2024/02/07 20:18:49;;;;;;;14.70;4.80;;;;;;;0.78;100.00;99333.02;215806;1286;137962;-86
2024/02/07 20:23:49;;;;;;;16.80;4.20;;;;;;;0.71;100.00;99331.88;215060;1291;139689;-88
2024/02/07 20:28:53;;;;;;;9.00;2.90;;;;;;;0.65;100.00;99338.10;215848;1291;95202;-87
2024/02/07 20:33:54;;;;;;;11.20;3.20;;;;;;;0.59;100.00;99339.98;215056;1288;138828;-86
2024/02/07 20:38:54;;;;;;;8.90;3.20;;;;;;;0.52;100.00;99344.17;215041;1291;137915;-86
2024/02/07 20:43:55;;;;;;;15.40;4.10;;;;;;;0.45;100.00;99348.26;214247;1288;138628;-86
2024/02/07 20:48:56;;;;;;;15.00;4.10;;;;;;;0.40;100.00;99358.43;215306;1288;138182;-85
2024/02/07 20:53:58;;;;;;;75.00;28.60;;;;;;;0.33;100.00;99357.45;214584;1288;139261;-86
2024/02/07 20:58:58;;;;;;;48.20;19.40;;;;;;;0.27;100.00;99359.16;215871;1288;96112;-86
2024/02/07 21:03:59;;;;;;;18.60;5.90;;;;;;;0.23;100.00;99360.27;214670;1289;138680;-86
2024/02/07 21:08:59;;;;;;;17.10;4.40;;;;;;;0.21;100.00;99368.06;215622;1286;137965;-86
2024/02/07 21:14:00;;;;;;;13.70;3.60;;;;;;;0.17;100.00;99362.14;216453;1289;138041;-86
2024/02/07 21:19:01;;;;;;;16.50;4.20;;;;;;;0.14;100.00;99360.56;215387;1290;138221;-86
2024/02/07 21:24:02;;;;;;;15.70;4.20;;;;;;;0.11;100.00;99366.10;214879;1289;139123;-86
2024/02/07 21:29:02;;;;;;;17.00;4.80;;;;;;;0.09;100.00;99371.98;215910;1289;95045;-85
2024/02/07 21:34:02;;;;;;;12.30;4.10;;;;;;;0.06;100.00;99374.06;214349;1288;138814;-84
2024/02/07 21:39:03;;;;;;;16.20;4.50;;;;;;;0.04;100.00;99380.84;214562;1288;137954;-83
2024/02/07 21:44:03;;;;;;;11.60;3.60;;;;;;;-0.02;100.00;99380.35;214112;1291;138930;-84
2024/02/07 21:49:04;;;;;;;11.70;3.70;;;;;;;-0.07;100.00;99378.58;214725;1287;138295;-85
2024/02/07 21:54:04;;;;;;;9.70;4.00;;;;;;;-0.12;100.00;99381.11;213559;1289;139064;-86
2024/02/07 21:59:05;;;;;;;19.50;5.90;;;;;;;-0.18;100.00;99378.34;214353;1291;108990;-85
2024/02/07 22:04:05;;;;;;;111.90;39.50;;;;;;;-0.23;100.00;99378.38;213948;1288;141013;-85
2024/02/07 22:09:06;;;;;;;69.90;33.10;;;;;;;-0.28;100.00;99379.44;214114;1287;138554;-85
2024/02/07 22:14:06;;;;;;;32.70;13.60;;;;;;;-0.31;100.00;99384.80;216160;1289;139298;-84
2024/02/07 22:19:07;;;;;;;21.80;7.80;;;;;;;-0.35;100.00;99375.73;215022;1288;138741;-85
2024/02/07 22:24:07;;;;;;;20.70;6.80;;;;;;;-0.40;100.00;99377.38;214687;1287;139765;-85
2024/02/07 22:29:07;;;;;;;19.70;6.80;;;;;;;-0.43;100.00;99386.53;214929;1288;95614;-85
2024/02/07 22:34:08;;;;;;;14.80;6.40;;;;;;;-0.48;100.00;99387.41;215718;1287;139370;-84
2024/02/07 22:39:08;;;;;;;15.30;6.30;;;;;;;-0.54;100.00;99388.70;215770;1287;138149;-84
2024/02/07 22:44:09;;;;;;;13.90;5.90;;;;;;;-0.61;100.00;99392.92;214975;1287;139327;-85
2024/02/07 22:49:09;;;;;;;16.40;5.40;;;;;;;-0.66;100.00;99394.98;215211;1288;138461;-85
2024/02/07 22:54:11;;;;;;;15.90;5.00;;;;;;;-0.69;100.00;99394.33;214697;1293;139465;-85
2024/02/07 22:59:12;;;;;;;16.30;5.40;;;;;;;-0.72;100.00;99393.05;215788;1292;95179;-85
2024/02/07 23:04:12;;;;;;;15.60;5.10;;;;;;;-0.76;100.00;99404.08;215574;1291;139136;-85
2024/02/07 23:09:13;;;;;;;14.80;4.80;;;;;;;-0.79;100.00;99409.52;216107;1287;138755;-85
2024/02/07 23:14:13;;;;;;;14.30;4.80;;;;;;;-0.84;100.00;99411.11;215889;1289;139395;-85
2024/02/07 23:19:14;;;;;;;17.20;4.50;;;;;;;-0.89;100.00;99416.23;215775;1288;138396;-85
2024/02/07 23:24:15;;;;;;;14.60;4.70;;;;;;;-0.95;100.00;99418.92;215042;1288;139094;-85
2024/02/07 23:29:15;;;;;;;14.90;4.50;;;;;;;-0.99;100.00;99427.17;215303;1290;95075;-85
2024/02/07 23:34:16;;;;;;;18.60;5.20;;;;;;;-1.02;100.00;99423.09;214691;1290;139280;-84
2024/02/07 23:39:16;;;;;;;11.10;4.00;;;;;;;-1.07;100.00;99417.90;214528;1289;138815;-85
2024/02/07 23:44:17;;;;;;;17.50;4.30;;;;;;;-1.13;100.00;99418.89;214022;1288;140177;-84
2024/02/07 23:49:17;;;;;;;13.30;4.30;;;;;;;-1.20;100.00;99418.69;215044;1287;138483;-86
2024/02/07 23:54:18;;;;;;;15.30;4.40;;;;;;;-1.24;100.00;99410.20;214418;1287;139314;-85
2024/02/07 23:59:20;;;;;;;9.30;3.40;;;;;;;-1.28;100.00;99410.73;214925;1287;95385;-85
